createdAt,value
2018-07-19T00:00:50.508Z,18.84
2018-07-19T00:03:19.741Z,18.83
2018-07-19T00:05:49.013Z,18.76
2018-07-19T00:08:18.961Z,18.66
2018-07-19T00:10:48.208Z,18.62
2018-07-19T00:13:17.484Z,18.58
2018-07-19T00:15:46.780Z,18.60
2018-07-19T00:18:15.980Z,18.58
2018-07-19T00:20:45.216Z,18.52
2018-07-19T00:23:14.446Z,18.53
2018-07-19T00:25:44.327Z,18.38
2018-07-19T00:28:13.556Z,18.31
2018-07-19T00:30:42.720Z,18.13
2018-07-19T00:33:11.952Z,18.01
2018-07-19T00:35:41.217Z,17.99
2018-07-19T00:38:10.473Z,18.06
2018-07-19T00:40:39.705Z,18.00
2018-07-19T00:43:08.981Z,18.02
2018-07-19T00:45:38.208Z,18.02
2018-07-19T00:48:07.789Z,18.01
2018-07-19T00:50:37.185Z,17.93
2018-07-19T00:53:06.412Z,17.95
2018-07-19T00:55:35.649Z,17.98
2018-07-19T00:58:04.958Z,17.93
2018-07-19T01:00:34.258Z,17.96
2018-07-19T01:03:03.549Z,17.92
2018-07-19T01:05:32.846Z,17.89
2018-07-19T01:08:02.070Z,17.81
2018-07-19T01:10:31.347Z,17.69
2018-07-19T01:13:00.605Z,17.67
2018-07-19T01:15:29.946Z,17.56
2018-07-19T01:17:59.108Z,17.64
2018-07-19T01:20:28.340Z,17.44
2018-07-19T01:22:57.665Z,17.27
2018-07-19T01:25:27.150Z,17.14
2018-07-19T01:27:56.424Z,17.06
2018-07-19T01:30:25.672Z,16.83
2018-07-19T01:32:54.902Z,16.77
2018-07-19T01:35:24.100Z,16.89
2018-07-19T01:37:53.288Z,16.89
2018-07-19T01:40:22.496Z,16.96
2018-07-19T01:42:51.641Z,16.95
2018-07-19T01:45:20.884Z,16.95
2018-07-19T01:47:50.231Z,16.86
2018-07-19T01:50:19.541Z,16.89
2018-07-19T01:52:48.788Z,16.87
2018-07-19T01:55:18.038Z,16.98
2018-07-19T01:57:47.312Z,16.75
2018-07-19T02:00:16.576Z,16.69
2018-07-19T02:02:45.834Z,16.67
2018-07-19T02:05:15.075Z,16.65
2018-07-19T02:07:44.286Z,16.69
2018-07-19T02:10:14.400Z,16.68
2018-07-19T02:12:43.733Z,16.65
2018-07-19T02:15:13.091Z,16.70
2018-07-19T02:17:42.337Z,16.70
2018-07-19T02:20:11.618Z,16.60
2018-07-19T02:22:40.872Z,16.51
2018-07-19T02:25:10.128Z,16.49
2018-07-19T02:27:39.437Z,16.44
2018-07-19T02:30:08.737Z,16.44
2018-07-19T02:32:37.996Z,16.45
2018-07-19T02:35:07.303Z,16.49
2018-07-19T02:37:36.552Z,16.39
2018-07-19T02:40:05.920Z,16.42
2018-07-19T02:42:35.224Z,16.37
2018-07-19T02:45:04.529Z,16.26
2018-07-19T02:47:34.056Z,16.20
2018-07-19T02:50:03.435Z,16.22
2018-07-19T02:52:32.733Z,16.18
2018-07-19T02:55:02.000Z,16.13
2018-07-19T02:57:31.228Z,16.06
2018-07-19T03:00:00.527Z,16.06
2018-07-19T03:02:30.056Z,16.04
2018-07-19T03:04:59.227Z,16.10
2018-07-19T03:07:28.573Z,16.16
2018-07-19T03:09:57.780Z,16.10
2018-07-19T03:12:26.984Z,16.11
2018-07-19T03:14:56.324Z,16.01
2018-07-19T03:17:25.586Z,16.02
2018-07-19T03:19:54.819Z,16.00
2018-07-19T03:22:24.020Z,15.74
2018-07-19T03:24:53.443Z,15.44
2018-07-19T03:27:22.678Z,15.50
2018-07-19T03:29:52.044Z,15.67
2018-07-19T03:32:21.295Z,15.68
2018-07-19T03:34:50.557Z,15.78
2018-07-19T03:37:19.822Z,15.78
2018-07-19T03:39:49.139Z,15.80
2018-07-19T03:42:18.389Z,15.70
2018-07-19T03:44:47.618Z,15.61
2018-07-19T03:47:16.829Z,15.53
2018-07-19T03:49:46.053Z,15.44
2018-07-19T03:52:15.307Z,15.53
2018-07-19T03:54:44.503Z,15.59
2018-07-19T03:57:13.757Z,15.69
2018-07-19T03:59:42.997Z,15.70
2018-07-19T04:02:12.425Z,15.77
2018-07-19T04:04:41.706Z,15.63
2018-07-19T04:07:11.105Z,15.62
2018-07-19T04:09:40.304Z,15.71
2018-07-19T04:12:09.573Z,15.66
2018-07-19T04:14:38.900Z,15.74
2018-07-19T04:17:08.223Z,15.77
2018-07-19T04:19:37.405Z,15.81
2018-07-19T04:22:07.026Z,15.84
2018-07-19T04:24:36.741Z,15.87
2018-07-19T04:27:06.176Z,15.84
2018-07-19T04:29:35.367Z,15.88
2018-07-19T04:32:04.572Z,15.93
2018-07-19T04:34:33.752Z,16.07
2018-07-19T04:37:03.199Z,16.25
2018-07-19T04:39:32.428Z,16.37
2018-07-19T04:42:01.657Z,16.55
2018-07-19T04:44:30.906Z,16.62
2018-07-19T04:47:01.011Z,16.80
2018-07-19T04:49:31.883Z,17.11
2018-07-19T04:52:02.033Z,17.40
2018-07-19T04:54:31.249Z,17.72
2018-07-19T04:57:00.477Z,18.04
2018-07-19T04:59:30.277Z,18.19
2018-07-19T05:01:59.598Z,18.37
2018-07-19T05:04:28.833Z,18.68
2018-07-19T05:06:58.076Z,18.95
2018-07-19T05:09:27.332Z,18.88
2018-07-19T05:11:56.577Z,19.16
2018-07-19T05:14:25.849Z,19.52
2018-07-19T05:16:55.113Z,19.65
2018-07-19T05:19:24.328Z,19.97
2018-07-19T05:21:53.594Z,20.07
2018-07-19T05:24:22.876Z,20.22
2018-07-19T05:26:52.168Z,20.26
2018-07-19T05:29:21.420Z,20.37
2018-07-19T05:31:50.776Z,20.36
2018-07-19T05:34:19.969Z,20.43
2018-07-19T05:36:49.165Z,20.47
2018-07-19T05:39:18.453Z,20.59
2018-07-19T05:41:47.890Z,20.85
2018-07-19T05:44:17.128Z,20.93
2018-07-19T05:46:46.572Z,21.15
2018-07-19T05:49:15.729Z,21.11
2018-07-19T05:51:44.959Z,21.10
2018-07-19T05:54:14.213Z,21.07
2018-07-19T05:56:43.460Z,21.06
2018-07-19T05:59:12.717Z,21.16
2018-07-19T06:01:41.974Z,21.49
2018-07-19T06:04:11.209Z,21.68
2018-07-19T06:06:40.525Z,21.55
2018-07-19T06:09:11.130Z,21.87
2018-07-19T06:11:40.716Z,22.09
2018-07-19T06:14:10.056Z,22.13
2018-07-19T06:16:39.422Z,22.07
2018-07-19T06:19:08.724Z,22.09
2018-07-19T06:21:38.007Z,22.15
2018-07-19T06:24:07.249Z,22.13
2018-07-19T06:26:36.513Z,22.14
2018-07-19T06:29:05.744Z,22.14
2018-07-19T06:31:35.073Z,22.06
2018-07-19T06:34:04.309Z,21.70
2018-07-19T06:36:33.581Z,21.32
2018-07-19T06:39:02.874Z,21.75
2018-07-19T06:41:32.151Z,22.05
2018-07-19T06:44:01.341Z,22.09
2018-07-19T06:46:30.712Z,22.22
2018-07-19T06:48:59.931Z,22.33
2018-07-19T06:51:29.204Z,21.96
2018-07-19T06:53:58.427Z,22.22
2018-07-19T06:56:28.495Z,22.39
2018-07-19T06:58:57.648Z,22.19
2018-07-19T07:01:26.860Z,22.29
2018-07-19T07:03:56.263Z,22.23
2018-07-19T07:06:25.560Z,22.38
2018-07-19T07:08:54.705Z,22.56
2018-07-19T07:11:24.071Z,22.73
2018-07-19T07:13:53.380Z,22.74
2018-07-19T07:16:22.674Z,22.85
2018-07-19T07:18:51.996Z,22.70
2018-07-19T07:21:21.441Z,22.63
2018-07-19T07:23:51.576Z,22.85
2018-07-19T07:26:20.986Z,22.97
2018-07-19T07:28:50.310Z,23.10
2018-07-19T07:31:19.743Z,23.08
2018-07-19T07:33:49.242Z,23.13
2018-07-19T07:36:18.585Z,23.12
2018-07-19T07:38:47.998Z,23.18
2018-07-19T07:41:17.197Z,23.29
2018-07-19T07:43:46.692Z,22.67
2018-07-19T07:46:15.880Z,23.11
2018-07-19T07:48:45.078Z,23.59
2018-07-19T07:51:14.588Z,23.88
2018-07-19T07:53:43.942Z,24.12
2018-07-19T07:56:13.464Z,23.84
2018-07-19T07:58:42.921Z,23.77
2018-07-19T08:01:12.336Z,24.03
2018-07-19T08:03:42.671Z,24.10
2018-07-19T08:06:11.886Z,24.35
2018-07-19T08:08:41.179Z,24.36
2018-07-19T08:11:10.463Z,24.46
2018-07-19T08:13:39.779Z,24.58
2018-07-19T08:16:09.058Z,24.87
2018-07-19T08:18:38.312Z,25.02
2018-07-19T08:21:07.779Z,25.07
2018-07-19T08:23:37.177Z,25.24
2018-07-19T08:26:06.576Z,25.62
2018-07-19T08:28:36.081Z,25.98
2018-07-19T08:31:05.695Z,26.37
2018-07-19T08:33:35.193Z,26.51
2018-07-19T08:36:05.180Z,26.48
2018-07-19T08:38:34.518Z,26.49
2018-07-19T08:41:03.915Z,26.86
2018-07-19T08:43:33.406Z,27.32
2018-07-19T08:46:03.540Z,27.61
2018-07-19T08:48:32.840Z,27.79
2018-07-19T08:51:02.138Z,28.26
2018-07-19T08:53:31.369Z,28.52
2018-07-19T08:58:28.858Z,28.64
2018-07-19T09:00:58.401Z,28.56
2018-07-19T09:03:27.923Z,28.27
2018-07-19T09:05:57.422Z,27.43
2018-07-19T09:08:26.814Z,27.48
2018-07-19T09:10:56.386Z,28.32
2018-07-19T09:13:25.727Z,28.76
2018-07-19T09:15:55.131Z,29.02
2018-07-19T09:18:24.524Z,29.33
2018-07-19T09:20:53.773Z,29.71
2018-07-19T09:23:23.222Z,29.18
2018-07-19T09:25:52.709Z,29.00
2018-07-19T09:28:22.248Z,29.37
2018-07-19T09:30:51.753Z,29.23
2018-07-19T09:33:21.028Z,28.90
2018-07-19T09:35:50.636Z,28.79
2018-07-19T09:38:20.456Z,28.69
2018-07-19T09:40:49.750Z,29.22
2018-07-19T09:43:19.083Z,29.55
2018-07-19T09:45:48.560Z,29.54
2018-07-19T09:48:17.807Z,29.56
2018-07-19T09:50:47.374Z,29.11
2018-07-19T09:53:16.632Z,29.21
2018-07-19T09:55:45.874Z,29.30
2018-07-19T09:58:15.106Z,29.74
2018-07-19T10:00:49.899Z,30.07
2018-07-19T10:03:19.173Z,30.44
2018-07-19T10:05:49.011Z,29.85
2018-07-19T10:08:18.246Z,30.57
2018-07-19T10:10:47.766Z,31.00
2018-07-19T10:13:17.260Z,31.29
2018-07-19T10:15:46.721Z,31.08
2018-07-19T10:18:15.973Z,30.79
2018-07-19T10:20:45.150Z,30.46
2018-07-19T10:23:14.400Z,30.80
2018-07-19T10:25:43.689Z,30.36
2018-07-19T10:28:13.084Z,29.97
2018-07-19T10:30:42.289Z,30.38
2018-07-19T10:33:11.448Z,30.94
2018-07-19T10:35:40.799Z,30.94
2018-07-19T10:38:10.107Z,30.87
2018-07-19T10:40:39.312Z,30.83
2018-07-19T10:43:09.005Z,30.91
2018-07-19T10:45:38.244Z,30.67
2018-07-19T10:48:07.465Z,30.60
2018-07-19T10:50:36.710Z,29.53
2018-07-19T10:53:05.877Z,29.92
2018-07-19T10:55:35.191Z,30.19
2018-07-19T10:58:04.554Z,30.42
2018-07-19T11:00:33.744Z,30.32
2018-07-19T11:03:02.970Z,30.53
2018-07-19T11:05:32.129Z,30.58
2018-07-19T11:08:01.605Z,30.68
2018-07-19T11:10:30.780Z,30.83
2018-07-19T11:13:00.021Z,30.63
2018-07-19T11:15:29.225Z,30.53
2018-07-19T11:17:58.388Z,31.38
2018-07-19T11:20:27.636Z,31.62
2018-07-19T11:22:56.852Z,31.80
2018-07-19T11:25:26.014Z,31.30
2018-07-19T11:27:55.267Z,31.12
2018-07-19T11:30:24.687Z,31.01
2018-07-19T11:32:53.986Z,30.98
2018-07-19T11:35:23.421Z,30.79
2018-07-19T11:37:52.705Z,31.14
2018-07-19T11:40:22.529Z,31.46
2018-07-19T11:42:51.982Z,31.69
2018-07-19T11:45:21.250Z,31.98
2018-07-19T11:47:50.688Z,31.83
2018-07-19T11:50:19.956Z,31.06
2018-07-19T11:52:49.317Z,30.84
2018-07-19T11:55:18.707Z,30.86
2018-07-19T11:57:48.109Z,31.07
2018-07-19T12:00:17.407Z,30.99
2018-07-19T12:02:46.913Z,30.54
2018-07-19T12:05:16.419Z,30.48
2018-07-19T12:07:45.874Z,30.99
2018-07-19T12:10:15.326Z,30.91
2018-07-19T12:12:44.815Z,31.15
2018-07-19T12:15:14.332Z,31.21
2018-07-19T12:17:44.333Z,31.57
2018-07-19T12:20:13.647Z,31.28
2018-07-19T12:22:43.155Z,31.64
2018-07-19T12:25:12.447Z,32.15
2018-07-19T12:27:41.965Z,32.07
2018-07-19T12:30:12.077Z,31.93
2018-07-19T12:32:41.670Z,32.19
2018-07-19T12:35:11.067Z,31.65
2018-07-19T12:37:40.591Z,31.38
2018-07-19T12:40:09.892Z,31.44
2018-07-19T12:42:39.882Z,31.87
2018-07-19T12:45:09.302Z,31.96
2018-07-19T12:47:38.711Z,31.94
2018-07-19T12:50:07.993Z,32.26
2018-07-19T12:52:37.404Z,32.56
2018-07-19T12:55:06.706Z,32.74
2018-07-19T12:57:36.107Z,32.69
2018-07-19T13:00:06.136Z,31.89
2018-07-19T13:02:35.637Z,31.75
2018-07-19T13:05:05.242Z,32.04
2018-07-19T13:07:34.669Z,32.26
2018-07-19T13:10:04.149Z,32.29
2018-07-19T13:12:34.217Z,32.50
2018-07-19T13:15:03.895Z,32.25
2018-07-19T13:17:33.252Z,32.58
2018-07-19T13:20:02.630Z,32.57
2018-07-19T13:22:32.198Z,32.64
2018-07-19T13:25:02.137Z,32.44
2018-07-19T13:27:31.365Z,32.06
2018-07-19T13:30:00.644Z,32.31
2018-07-19T13:32:29.876Z,31.59
2018-07-19T13:34:59.201Z,31.14
2018-07-19T13:37:28.553Z,31.43
2018-07-19T13:39:57.848Z,31.81
2018-07-19T13:42:27.195Z,32.02
2018-07-19T13:44:56.552Z,32.23
2018-07-19T13:47:25.998Z,32.31
2018-07-19T13:49:55.117Z,32.75
2018-07-19T13:53:39.611Z,32.46
2018-07-19T13:56:09.483Z,32.53
2018-07-19T13:58:39.281Z,32.37
2018-07-19T14:01:08.887Z,32.58
2018-07-19T14:03:38.494Z,32.86
2018-07-19T14:06:08.770Z,33.15
2018-07-19T14:08:38.017Z,33.23
2018-07-19T14:11:07.313Z,32.41
2018-07-19T14:13:36.704Z,32.62
2018-07-19T14:16:06.006Z,32.35
2018-07-19T14:18:35.428Z,32.07
2018-07-19T14:21:04.628Z,32.42
2018-07-19T14:23:33.808Z,32.86
2018-07-19T14:26:03.215Z,32.84
2018-07-19T14:28:33.124Z,32.93
2018-07-19T14:31:02.349Z,32.93
2018-07-19T14:33:31.629Z,32.24
2018-07-19T14:36:00.848Z,31.39
2018-07-19T14:38:30.097Z,31.17
2018-07-19T14:40:59.381Z,31.59
2018-07-19T14:43:28.556Z,31.70
2018-07-19T14:45:57.813Z,32.12
2018-07-19T14:48:27.058Z,32.07
2018-07-19T14:50:56.311Z,32.24
2018-07-19T14:53:25.612Z,32.47
2018-07-19T14:55:54.760Z,32.33
2018-07-19T14:58:24.067Z,32.18
2018-07-19T15:00:53.257Z,32.19
2018-07-19T15:03:22.710Z,32.15
2018-07-19T15:05:52.006Z,31.63
2018-07-19T15:08:21.181Z,31.45
2018-07-19T15:10:51.214Z,31.44
2018-07-19T15:13:20.520Z,31.50
2018-07-19T15:15:49.905Z,31.54
2018-07-19T15:18:19.201Z,31.50
2018-07-19T15:20:48.364Z,31.58
2018-07-19T15:23:17.485Z,31.84
2018-07-19T15:25:46.812Z,32.00
2018-07-19T15:28:16.457Z,31.97
2018-07-19T15:30:45.713Z,32.27
2018-07-19T15:33:14.964Z,32.60
2018-07-19T15:35:44.182Z,32.52
2018-07-19T15:38:13.413Z,32.35
2018-07-19T15:40:42.712Z,31.44
2018-07-19T15:43:12.126Z,31.38
2018-07-19T15:45:41.407Z,31.30
2018-07-19T15:48:11.099Z,31.62
2018-07-19T15:50:40.790Z,31.42
2018-07-19T15:53:10.008Z,31.58
2018-07-19T15:55:39.205Z,31.24
2018-07-19T15:58:08.363Z,31.26
2018-07-19T16:00:37.603Z,31.41
2018-07-19T16:03:06.861Z,31.56
2018-07-19T16:05:36.814Z,31.55
2018-07-19T16:08:05.992Z,31.81
2018-07-19T16:10:35.237Z,31.40
2018-07-19T16:13:04.496Z,31.89
2018-07-19T16:15:33.705Z,31.96
2018-07-19T16:18:02.871Z,32.10
2018-07-19T16:20:32.509Z,31.80
2018-07-19T16:23:01.840Z,31.71
2018-07-19T16:25:31.165Z,31.27
2018-07-19T16:28:00.512Z,31.15
2018-07-19T16:30:30.803Z,31.23
2018-07-19T16:33:00.259Z,30.98
2018-07-19T16:35:29.640Z,31.38
2018-07-19T16:37:58.837Z,31.15
2018-07-19T16:40:28.533Z,29.99
2018-07-19T16:42:57.936Z,30.80
2018-07-19T16:45:27.233Z,30.93
2018-07-19T16:47:56.588Z,30.73
2018-07-19T16:50:26.310Z,30.98
2018-07-19T16:52:55.663Z,30.96
2018-07-19T16:55:25.019Z,30.46
2018-07-19T16:57:54.653Z,30.22
2018-07-19T17:00:24.092Z,30.26
2018-07-19T17:02:53.557Z,30.73
2018-07-19T17:05:22.869Z,30.59
2018-07-19T17:07:52.197Z,30.77
2018-07-19T17:10:21.417Z,30.17
2018-07-19T17:12:50.706Z,30.35
2018-07-19T17:15:20.201Z,30.27
2018-07-19T17:17:49.557Z,30.39
2018-07-19T17:20:19.108Z,30.32
2018-07-19T17:22:48.505Z,30.07
2018-07-19T17:25:17.832Z,30.31
2018-07-19T17:27:47.061Z,30.49
2018-07-19T17:30:16.450Z,30.22
2018-07-19T17:32:45.717Z,30.22
2018-07-19T17:35:14.945Z,30.13
2018-07-19T17:37:44.282Z,29.99
2018-07-19T17:40:13.707Z,29.94
2018-07-19T17:42:43.333Z,29.65
2018-07-19T17:45:12.613Z,29.66
2018-07-19T17:47:42.197Z,29.51
2018-07-19T17:50:11.824Z,29.25
2018-07-19T17:52:41.145Z,29.33
2018-07-19T17:55:10.841Z,28.96
2018-07-19T17:57:40.545Z,29.03
2018-07-19T18:00:10.355Z,29.21
2018-07-19T18:02:39.960Z,29.13
2018-07-19T18:05:09.322Z,29.14
2018-07-19T18:07:38.614Z,29.09
2018-07-19T18:10:07.874Z,29.05
2018-07-19T18:12:37.772Z,29.03
2018-07-19T18:15:07.117Z,28.94
2018-07-19T18:17:36.465Z,28.55
2018-07-19T18:20:06.025Z,28.49
2018-07-19T18:22:36.298Z,28.26
2018-07-19T18:25:06.281Z,28.20
2018-07-19T18:27:35.729Z,28.20
2018-07-19T18:30:06.958Z,27.85
2018-07-19T18:32:36.213Z,27.97
2018-07-19T18:35:05.476Z,27.85
2018-07-19T18:37:34.784Z,27.62
2018-07-19T18:40:04.102Z,27.35
2018-07-19T18:42:33.459Z,27.28
2018-07-19T18:45:02.746Z,27.16
2018-07-19T18:47:32.089Z,27.16
2018-07-19T18:50:01.237Z,26.98
2018-07-19T18:52:30.557Z,26.71
2018-07-19T18:54:59.903Z,26.60
2018-07-19T18:57:29.246Z,26.43
2018-07-19T18:59:58.548Z,26.19
2018-07-19T19:02:27.847Z,26.07
2018-07-19T19:04:57.101Z,25.98
2018-07-19T19:07:26.402Z,25.96
2018-07-19T19:09:55.602Z,25.95
2018-07-19T19:12:24.926Z,26.01
2018-07-19T19:14:54.138Z,26.00
2018-07-19T19:17:23.390Z,26.11
2018-07-19T19:19:52.728Z,26.10
2018-07-19T19:22:21.986Z,25.75
2018-07-19T19:24:51.229Z,25.73
2018-07-19T19:27:20.392Z,25.61
2018-07-19T19:29:49.612Z,25.71
2018-07-19T19:32:18.900Z,25.64
2018-07-19T19:34:48.351Z,25.53
2018-07-19T19:37:17.850Z,25.52
2018-07-19T19:39:47.139Z,25.20
2018-07-19T19:42:16.332Z,25.19
2018-07-19T19:44:46.538Z,25.12
2018-07-19T19:47:15.833Z,25.14
2018-07-19T19:49:45.023Z,24.93
2018-07-19T19:52:14.173Z,24.71
2018-07-19T19:54:43.553Z,24.77
2018-07-19T19:57:12.812Z,24.59
2018-07-19T19:59:42.029Z,24.32
2018-07-19T20:02:11.469Z,23.94
2018-07-19T20:04:40.686Z,24.02
2018-07-19T20:07:10.297Z,24.17
2018-07-19T20:09:39.487Z,24.24
2018-07-19T20:12:08.744Z,24.24
2018-07-19T20:14:38.090Z,24.31
2018-07-19T20:17:07.260Z,24.39
2018-07-19T20:19:36.581Z,24.29
2018-07-19T20:22:05.831Z,24.22
2018-07-19T20:24:35.265Z,24.25
2018-07-19T20:27:04.673Z,24.13
2018-07-19T20:29:33.949Z,24.17
2018-07-19T20:32:03.122Z,24.11
2018-07-19T20:34:32.485Z,23.80
2018-07-19T20:37:01.744Z,23.83
2018-07-19T20:39:31.122Z,23.81
2018-07-19T20:42:00.345Z,23.73
2018-07-19T20:44:29.574Z,23.56
2018-07-19T20:46:58.744Z,23.38
2018-07-19T20:49:28.116Z,23.23
2018-07-19T20:51:57.325Z,22.70
2018-07-19T20:54:27.554Z,22.65
2018-07-19T20:56:56.895Z,22.61
2018-07-19T20:59:26.156Z,22.76
2018-07-19T21:01:55.415Z,22.99
2018-07-19T21:04:24.652Z,23.18
2018-07-19T21:06:53.917Z,23.28
2018-07-19T21:09:23.158Z,23.31
2018-07-19T21:11:52.308Z,23.32
2018-07-19T21:14:21.573Z,23.36
2018-07-19T21:16:51.271Z,23.37
2018-07-19T21:19:20.628Z,23.34
2018-07-19T21:21:49.800Z,23.27
2018-07-19T21:24:19.062Z,23.14
2018-07-19T21:26:48.205Z,23.13
2018-07-19T21:29:17.562Z,23.05
2018-07-19T21:31:46.866Z,22.77
2018-07-19T21:34:16.043Z,22.68
2018-07-19T21:36:45.426Z,22.53
2018-07-19T21:39:14.644Z,22.44
2018-07-19T21:41:43.792Z,22.44
2018-07-19T21:44:13.263Z,22.39
2018-07-19T21:46:42.388Z,22.37
2018-07-19T21:49:11.510Z,22.32
2018-07-19T21:51:40.760Z,22.28
2018-07-19T21:54:10.038Z,22.33
2018-07-19T21:56:39.231Z,22.32
2018-07-19T21:59:08.418Z,22.09
2018-07-19T22:01:42.930Z,22.00
2018-07-19T22:04:12.363Z,21.98
2018-07-19T22:06:41.774Z,21.80
2018-07-19T22:09:12.525Z,21.71
2018-07-19T22:11:41.751Z,21.78
2018-07-19T22:14:11.075Z,21.66
2018-07-19T22:16:40.921Z,21.66
2018-07-19T22:19:10.146Z,21.41
2018-07-19T22:21:39.409Z,21.45
2018-07-19T22:24:08.590Z,21.53
2018-07-19T22:26:37.723Z,21.49
2018-07-19T22:29:06.868Z,21.46
2018-07-19T22:31:36.029Z,21.28
2018-07-19T22:34:05.225Z,21.38
2018-07-19T22:36:34.431Z,21.41
2018-07-19T22:39:03.890Z,21.34
2018-07-19T22:41:33.028Z,21.31
2018-07-19T22:44:02.205Z,21.19
2018-07-19T22:46:31.364Z,21.18
2018-07-19T22:49:00.796Z,21.08
2018-07-19T22:51:30.020Z,20.94
2018-07-19T22:53:59.160Z,20.89
2018-07-19T22:56:28.380Z,20.33
2018-07-19T22:58:57.530Z,20.40
2018-07-19T23:01:26.704Z,20.52
2018-07-19T23:03:55.856Z,20.66
2018-07-19T23:06:25.027Z,20.13
2018-07-19T23:08:55.280Z,20.12
2018-07-19T23:11:24.587Z,20.24
2018-07-19T23:13:53.708Z,20.19
2018-07-19T23:16:23.069Z,20.15
2018-07-19T23:18:52.185Z,20.37
2018-07-19T23:21:21.449Z,20.54
2018-07-19T23:23:50.611Z,20.38
2018-07-19T23:26:19.793Z,20.20
2018-07-19T23:28:49.171Z,20.36
2018-07-19T23:31:18.432Z,20.38
2018-07-19T23:33:47.641Z,20.21
2018-07-19T23:36:52.777Z,20.30
2018-07-19T23:39:39.632Z,20.09
2018-07-19T23:42:15.134Z,19.96
2018-07-19T23:44:49.033Z,20.02
2018-07-19T23:47:22.048Z,19.96
2018-07-19T23:49:51.461Z,19.96
2018-07-19T23:52:20.584Z,19.80
2018-07-19T23:54:49.845Z,19.86
2018-07-19T23:57:19.093Z,19.95
2018-07-19T23:59:48.273Z,19.81
